WZZ7JF EYVI-EPWA
Flight info
| Callsign | WZZ7JF |
|---|---|
| Flight time | 0h 56m |
| Altitude | 36000 |
| Route | UPASI DCT TUNGA DCT SUWGI M857 GERVI P851 NEPOX |
| Aircraft | A320/M-SDE3FGHIRWY/LB1 |
Departure
| Time | 2026-05-06 19:39 |
|---|---|
| Airport | Vilnius International Airport (EYVI) |
Arrival
| Time | 2026-05-06 20:35 |
|---|---|
| Airport | Warsaw Chopin Airport (EPWA) |
| Time | Latitude | Longitude | Altitude | Speed | Heading |
|---|---|---|---|---|---|
| 2026-05-06 18:50 | 54.64387 | 25.28179 | 637 ft | 0 kts | 229° |
| 2026-05-06 19:28 | 54.64387 | 25.28181 | 637 ft | 2 kts | 229° |
| 2026-05-06 19:28 | 54.64404 | 25.28213 | 616 ft | 4 kts | 227° |
| 2026-05-06 19:29 | 54.64423 | 25.28246 | 645 ft | 4 kts | 224° |
| 2026-05-06 19:29 | 54.64443 | 25.28277 | 639 ft | 3 kts | 220° |
| 2026-05-06 19:29 | 54.64449 | 25.28286 | 640 ft | 0 kts | 220° |
| 2026-05-06 19:34 | 54.64429 | 25.28295 | 647 ft | 6 kts | 134° |
| 2026-05-06 19:34 | 54.64386 | 25.28380 | 643 ft | 12 kts | 155° |
| 2026-05-06 19:34 | 54.64313 | 25.28457 | 645 ft | 12 kts | 89° |
| 2026-05-06 19:35 | 54.64321 | 25.28629 | 650 ft | 12 kts | 93° |
| 2026-05-06 19:35 | 54.64227 | 25.28679 | 650 ft | 20 kts | 173° |
| 2026-05-06 19:35 | 54.64053 | 25.28699 | 645 ft | 30 kts | 191° |
| 2026-05-06 19:35 | 54.63817 | 25.28544 | 630 ft | 43 kts | 203° |
| 2026-05-06 19:36 | 54.63561 | 25.28360 | 618 ft | 41 kts | 203° |
| 2026-05-06 19:36 | 54.63307 | 25.28183 | 610 ft | 37 kts | 202° |
| 2026-05-06 19:36 | 54.63052 | 25.28007 | 612 ft | 28 kts | 200° |
| 2026-05-06 19:36 | 54.62835 | 25.27856 | 602 ft | 38 kts | 202° |
| 2026-05-06 19:37 | 54.62631 | 25.27714 | 601 ft | 23 kts | 202° |
| 2026-05-06 19:37 | 54.62491 | 25.27695 | 610 ft | 12 kts | 141° |
| 2026-05-06 19:37 | 54.62488 | 25.27700 | 609 ft | 0 kts | 142° |
| 2026-05-06 19:38 | 54.62466 | 25.27728 | 617 ft | 8 kts | 142° |
| 2026-05-06 19:38 | 54.62412 | 25.27839 | 608 ft | 16 kts | 108° |
| 2026-05-06 19:38 | 54.62478 | 25.27925 | 609 ft | 15 kts | 24° |
| 2026-05-06 19:38 | 54.62806 | 25.28156 | 601 ft | 97 kts | 21° |
| 2026-05-06 19:39 | 54.63656 | 25.28774 | 667 ft | 160 kts | 21° |
| 2026-05-06 19:39 | 54.64733 | 25.29526 | 1399 ft | 174 kts | 24° |
| 2026-05-06 19:39 | 54.65920 | 25.30344 | 2157 ft | 196 kts | 24° |
| 2026-05-06 19:39 | 54.67256 | 25.31268 | 2678 ft | 218 kts | 22° |
| 2026-05-06 19:40 | 54.68750 | 25.32298 | 3130 ft | 242 kts | 20° |
| 2026-05-06 19:40 | 54.70374 | 25.33415 | 3801 ft | 256 kts | 20° |
| 2026-05-06 19:40 | 54.72028 | 25.34557 | 4660 ft | 262 kts | 19° |
| 2026-05-06 19:40 | 54.73757 | 25.35760 | 5575 ft | 267 kts | 19° |
| 2026-05-06 19:41 | 54.75477 | 25.36956 | 6436 ft | 272 kts | 18° |
| 2026-05-06 19:41 | 54.77251 | 25.38175 | 7295 ft | 277 kts | 15° |
| 2026-05-06 19:41 | 54.79138 | 25.38567 | 8124 ft | 272 kts | 344° |
| 2026-05-06 19:41 | 54.80843 | 25.37295 | 8810 ft | 271 kts | 313° |
| 2026-05-06 19:42 | 54.81929 | 25.34673 | 9423 ft | 270 kts | 287° |
| 2026-05-06 19:42 | 54.82628 | 25.31600 | 10049 ft | 282 kts | 286° |
| 2026-05-06 19:42 | 54.83282 | 25.28252 | 10336 ft | 302 kts | 276° |
| 2026-05-06 19:42 | 54.83267 | 25.24545 | 10573 ft | 317 kts | 255° |
| 2026-05-06 19:43 | 54.82424 | 25.20967 | 11043 ft | 326 kts | 240° |
| 2026-05-06 19:43 | 54.81331 | 25.17481 | 11741 ft | 331 kts | 240° |
| 2026-05-06 19:43 | 54.80230 | 25.13950 | 12505 ft | 334 kts | 240° |
| 2026-05-06 19:43 | 54.79125 | 25.10391 | 13256 ft | 338 kts | 240° |
| 2026-05-06 19:44 | 54.78008 | 25.06788 | 13951 ft | 341 kts | 240° |
| 2026-05-06 19:44 | 54.76875 | 25.03153 | 14593 ft | 345 kts | 240° |
| 2026-05-06 19:44 | 54.75738 | 24.99535 | 15215 ft | 348 kts | 241° |
| 2026-05-06 19:44 | 54.74574 | 24.95836 | 15841 ft | 351 kts | 241° |
| 2026-05-06 19:45 | 54.73398 | 24.92105 | 16463 ft | 355 kts | 241° |
| 2026-05-06 19:45 | 54.72207 | 24.88330 | 17095 ft | 359 kts | 241° |
| 2026-05-06 19:45 | 54.71004 | 24.84520 | 17716 ft | 362 kts | 241° |
| 2026-05-06 19:45 | 54.69787 | 24.80670 | 18313 ft | 366 kts | 241° |
| 2026-05-06 19:46 | 54.68556 | 24.76785 | 18880 ft | 369 kts | 241° |
| 2026-05-06 19:46 | 54.67314 | 24.72873 | 19472 ft | 372 kts | 241° |
| 2026-05-06 19:46 | 54.66080 | 24.68987 | 20050 ft | 375 kts | 241° |
| 2026-05-06 19:46 | 54.64818 | 24.65023 | 20623 ft | 377 kts | 240° |
| 2026-05-06 19:47 | 54.63549 | 24.61043 | 21162 ft | 380 kts | 240° |
| 2026-05-06 19:47 | 54.62270 | 24.57039 | 21694 ft | 382 kts | 240° |
| 2026-05-06 19:47 | 54.60978 | 24.53001 | 22207 ft | 385 kts | 240° |
| 2026-05-06 19:47 | 54.59676 | 24.48941 | 22725 ft | 388 kts | 240° |
| 2026-05-06 19:48 | 54.58365 | 24.44860 | 23246 ft | 390 kts | 240° |
| 2026-05-06 19:48 | 54.57041 | 24.40757 | 23681 ft | 393 kts | 240° |
| 2026-05-06 19:48 | 54.55708 | 24.36629 | 24116 ft | 395 kts | 240° |
| 2026-05-06 19:48 | 54.54370 | 24.32488 | 24538 ft | 396 kts | 240° |
| 2026-05-06 19:49 | 54.53043 | 24.28385 | 24966 ft | 398 kts | 240° |
| 2026-05-06 19:49 | 54.51693 | 24.24211 | 25396 ft | 399 kts | 240° |
| 2026-05-06 19:49 | 54.50336 | 24.20018 | 25834 ft | 401 kts | 240° |
| 2026-05-06 19:49 | 54.48971 | 24.15812 | 26272 ft | 403 kts | 240° |
| 2026-05-06 19:50 | 54.47600 | 24.11597 | 26681 ft | 405 kts | 240° |
| 2026-05-06 19:50 | 54.46220 | 24.07364 | 27102 ft | 406 kts | 240° |
| 2026-05-06 19:50 | 54.44832 | 24.03117 | 27510 ft | 408 kts | 240° |
| 2026-05-06 19:50 | 54.43436 | 23.98859 | 27924 ft | 410 kts | 240° |
| 2026-05-06 19:51 | 54.42053 | 23.94645 | 28326 ft | 412 kts | 240° |
| 2026-05-06 19:51 | 54.40647 | 23.90363 | 28853 ft | 410 kts | 240° |
| 2026-05-06 19:51 | 54.39248 | 23.86115 | 29478 ft | 407 kts | 240° |
| 2026-05-06 19:51 | 54.37857 | 23.81900 | 30083 ft | 405 kts | 240° |
| 2026-05-06 19:52 | 54.36473 | 23.77710 | 30588 ft | 403 kts | 240° |
| 2026-05-06 19:52 | 54.35095 | 23.73540 | 31080 ft | 402 kts | 240° |
| 2026-05-06 19:52 | 54.33718 | 23.69376 | 31554 ft | 401 kts | 240° |
| 2026-05-06 19:52 | 54.32344 | 23.65233 | 32019 ft | 400 kts | 240° |
| 2026-05-06 19:53 | 54.30967 | 23.61092 | 32488 ft | 400 kts | 239° |
| 2026-05-06 19:53 | 54.29588 | 23.56956 | 32965 ft | 399 kts | 239° |
| 2026-05-06 19:53 | 54.28227 | 23.52882 | 33440 ft | 398 kts | 239° |
| 2026-05-06 19:53 | 54.26856 | 23.48775 | 33903 ft | 398 kts | 239° |
| 2026-05-06 19:54 | 54.25482 | 23.44670 | 34284 ft | 398 kts | 239° |
| 2026-05-06 19:54 | 54.24105 | 23.40558 | 34663 ft | 398 kts | 239° |
| 2026-05-06 19:54 | 54.22729 | 23.36452 | 35016 ft | 399 kts | 239° |
| 2026-05-06 19:54 | 54.21349 | 23.32342 | 35362 ft | 399 kts | 239° |
| 2026-05-06 19:55 | 54.19962 | 23.28228 | 35700 ft | 400 kts | 239° |
| 2026-05-06 19:55 | 54.18567 | 23.24106 | 35804 ft | 403 kts | 239° |
| 2026-05-06 19:55 | 54.15757 | 23.15821 | 35818 ft | 406 kts | 239° |
| 2026-05-06 19:56 | 54.12924 | 23.07486 | 35818 ft | 406 kts | 239° |
| 2026-05-06 19:56 | 54.10565 | 23.00559 | 35817 ft | 406 kts | 239° |
| 2026-05-06 19:57 | 54.07087 | 22.93047 | 35810 ft | 407 kts | 221° |
| 2026-05-06 19:57 | 54.02153 | 22.88306 | 35806 ft | 413 kts | 201° |
| 2026-05-06 19:58 | 53.96512 | 22.86072 | 35799 ft | 416 kts | 196° |
| 2026-05-06 19:58 | 53.90878 | 22.83938 | 35790 ft | 417 kts | 196° |
| 2026-05-06 19:59 | 53.85217 | 22.81770 | 35786 ft | 417 kts | 196° |
| 2026-05-06 19:59 | 53.79549 | 22.79609 | 35785 ft | 417 kts | 196° |
| 2026-05-06 20:00 | 53.73878 | 22.77469 | 35775 ft | 418 kts | 196° |
| 2026-05-06 20:00 | 53.68204 | 22.75337 | 35774 ft | 418 kts | 196° |
| 2026-05-06 20:01 | 53.62521 | 22.73214 | 35773 ft | 418 kts | 196° |
| 2026-05-06 20:01 | 53.56839 | 22.71093 | 35763 ft | 419 kts | 196° |
| 2026-05-06 20:02 | 53.51143 | 22.68973 | 35771 ft | 419 kts | 196° |
| 2026-05-06 20:02 | 53.45483 | 22.66616 | 35768 ft | 418 kts | 200° |
| 2026-05-06 20:03 | 53.39954 | 22.63633 | 35767 ft | 417 kts | 202° |
| 2026-05-06 20:03 | 53.37206 | 22.62070 | 35659 ft | 416 kts | 202° |
| 2026-05-06 20:03 | 53.34497 | 22.60556 | 35062 ft | 416 kts | 201° |
| 2026-05-06 20:04 | 53.31738 | 22.59061 | 34448 ft | 415 kts | 201° |
| 2026-05-06 20:04 | 53.28988 | 22.57609 | 33865 ft | 414 kts | 201° |
| 2026-05-06 20:04 | 53.26242 | 22.56181 | 33188 ft | 413 kts | 201° |
| 2026-05-06 20:04 | 53.23494 | 22.54758 | 32450 ft | 413 kts | 201° |
| 2026-05-06 20:05 | 53.20748 | 22.53335 | 31658 ft | 414 kts | 201° |
| 2026-05-06 20:05 | 53.17993 | 22.51906 | 30862 ft | 415 kts | 201° |
| 2026-05-06 20:05 | 53.15234 | 22.50471 | 30056 ft | 415 kts | 201° |
| 2026-05-06 20:05 | 53.12471 | 22.49032 | 29131 ft | 416 kts | 201° |
| 2026-05-06 20:06 | 53.09700 | 22.47588 | 28085 ft | 419 kts | 201° |
| 2026-05-06 20:06 | 53.06905 | 22.46128 | 26980 ft | 422 kts | 201° |
| 2026-05-06 20:06 | 53.04091 | 22.44661 | 25872 ft | 426 kts | 200° |
| 2026-05-06 20:06 | 53.01273 | 22.43200 | 25089 ft | 422 kts | 200° |
| 2026-05-06 20:07 | 52.98484 | 22.41762 | 24330 ft | 417 kts | 200° |
| 2026-05-06 20:07 | 52.95722 | 22.40345 | 23564 ft | 414 kts | 200° |
| 2026-05-06 20:07 | 52.92983 | 22.38936 | 22735 ft | 410 kts | 200° |
| 2026-05-06 20:07 | 52.90269 | 22.37538 | 21919 ft | 406 kts | 200° |
| 2026-05-06 20:08 | 52.87582 | 22.36151 | 21109 ft | 402 kts | 200° |
| 2026-05-06 20:08 | 52.84924 | 22.34783 | 20325 ft | 399 kts | 200° |
| 2026-05-06 20:08 | 52.82279 | 22.33423 | 19912 ft | 398 kts | 200° |
| 2026-05-06 20:08 | 52.79631 | 22.32057 | 19752 ft | 399 kts | 200° |
| 2026-05-06 20:09 | 52.76978 | 22.30692 | 19778 ft | 400 kts | 200° |
| 2026-05-06 20:09 | 52.74353 | 22.29347 | 19778 ft | 400 kts | 200° |
| 2026-05-06 20:09 | 52.71690 | 22.27993 | 19782 ft | 401 kts | 200° |
| 2026-05-06 20:09 | 52.69022 | 22.26640 | 19780 ft | 401 kts | 200° |
| 2026-05-06 20:10 | 52.66349 | 22.25285 | 19783 ft | 401 kts | 200° |
| 2026-05-06 20:10 | 52.63680 | 22.23927 | 19783 ft | 401 kts | 200° |
| 2026-05-06 20:10 | 52.61012 | 22.22568 | 19782 ft | 402 kts | 200° |
| 2026-05-06 20:10 | 52.58339 | 22.21212 | 19780 ft | 402 kts | 200° |
| 2026-05-06 20:11 | 52.55660 | 22.19858 | 19787 ft | 402 kts | 200° |
| 2026-05-06 20:11 | 52.52986 | 22.18508 | 19788 ft | 402 kts | 200° |
| 2026-05-06 20:11 | 52.50301 | 22.17151 | 19788 ft | 403 kts | 200° |
| 2026-05-06 20:11 | 52.47617 | 22.15796 | 19787 ft | 403 kts | 200° |
| 2026-05-06 20:12 | 52.44935 | 22.14443 | 19787 ft | 403 kts | 199° |
| 2026-05-06 20:12 | 52.42258 | 22.13090 | 19788 ft | 403 kts | 199° |
| 2026-05-06 20:12 | 52.39579 | 22.11742 | 19791 ft | 403 kts | 199° |
| 2026-05-06 20:12 | 52.36899 | 22.10393 | 19788 ft | 403 kts | 199° |
| 2026-05-06 20:13 | 52.34220 | 22.09048 | 19790 ft | 403 kts | 199° |
| 2026-05-06 20:13 | 52.31566 | 22.07721 | 19790 ft | 402 kts | 199° |
| 2026-05-06 20:13 | 52.28888 | 22.06383 | 19772 ft | 401 kts | 199° |
| 2026-05-06 20:13 | 52.26247 | 22.05068 | 19399 ft | 391 kts | 199° |
| 2026-05-06 20:14 | 52.23706 | 22.03808 | 19270 ft | 373 kts | 199° |
| 2026-05-06 20:14 | 52.21318 | 22.02423 | 19148 ft | 355 kts | 208° |
| 2026-05-06 20:14 | 52.19342 | 22.00179 | 18933 ft | 341 kts | 224° |
| 2026-05-06 20:14 | 52.17898 | 21.97168 | 18519 ft | 337 kts | 240° |
| 2026-05-06 20:15 | 52.17073 | 21.93613 | 18047 ft | 337 kts | 256° |
| 2026-05-06 20:15 | 52.16917 | 21.89799 | 17500 ft | 340 kts | 271° |
| 2026-05-06 20:15 | 52.17256 | 21.85976 | 16950 ft | 340 kts | 275° |
| 2026-05-06 20:15 | 52.17621 | 21.82177 | 16426 ft | 338 kts | 275° |
| 2026-05-06 20:16 | 52.17983 | 21.78402 | 15914 ft | 336 kts | 275° |
| 2026-05-06 20:16 | 52.18342 | 21.74645 | 15414 ft | 333 kts | 275° |
| 2026-05-06 20:16 | 52.18698 | 21.70926 | 14922 ft | 331 kts | 275° |
| 2026-05-06 20:16 | 52.19051 | 21.67229 | 14519 ft | 327 kts | 275° |
| 2026-05-06 20:17 | 52.19391 | 21.63637 | 14396 ft | 314 kts | 275° |
| 2026-05-06 20:17 | 52.19716 | 21.60183 | 14280 ft | 303 kts | 275° |
| 2026-05-06 20:17 | 52.20028 | 21.56834 | 14123 ft | 295 kts | 274° |
| 2026-05-06 20:17 | 52.20159 | 21.53555 | 13839 ft | 288 kts | 266° |
| 2026-05-06 20:18 | 52.20155 | 21.50342 | 13516 ft | 286 kts | 266° |
| 2026-05-06 20:18 | 52.20158 | 21.47062 | 13144 ft | 285 kts | 266° |
| 2026-05-06 20:18 | 52.20162 | 21.43879 | 12789 ft | 284 kts | 266° |
| 2026-05-06 20:18 | 52.20166 | 21.40671 | 12442 ft | 282 kts | 266° |
| 2026-05-06 20:19 | 52.20170 | 21.37471 | 12088 ft | 281 kts | 266° |
| 2026-05-06 20:19 | 52.20172 | 21.34293 | 11742 ft | 280 kts | 266° |
| 2026-05-06 20:19 | 52.20042 | 21.31148 | 11397 ft | 276 kts | 256° |
| 2026-05-06 20:19 | 52.19461 | 21.28201 | 11061 ft | 271 kts | 243° |
| 2026-05-06 20:20 | 52.18678 | 21.25414 | 10717 ft | 270 kts | 243° |
| 2026-05-06 20:20 | 52.17902 | 21.22642 | 10507 ft | 265 kts | 243° |
| 2026-05-06 20:20 | 52.17151 | 21.19956 | 10382 ft | 256 kts | 243° |
| 2026-05-06 20:20 | 52.16402 | 21.17375 | 10256 ft | 247 kts | 237° |
| 2026-05-06 20:21 | 52.15213 | 21.15497 | 10139 ft | 237 kts | 207° |
| 2026-05-06 20:21 | 52.13631 | 21.14970 | 10019 ft | 234 kts | 177° |
| 2026-05-06 20:21 | 52.12103 | 21.15863 | 9885 ft | 234 kts | 154° |
| 2026-05-06 20:21 | 52.10738 | 21.17147 | 9775 ft | 226 kts | 156° |
| 2026-05-06 20:22 | 52.09374 | 21.18349 | 9575 ft | 221 kts | 157° |
| 2026-05-06 20:22 | 52.08024 | 21.19514 | 9302 ft | 219 kts | 158° |
| 2026-05-06 20:22 | 52.06678 | 21.20667 | 9009 ft | 218 kts | 157° |
| 2026-05-06 20:22 | 52.05337 | 21.21818 | 8723 ft | 218 kts | 157° |
| 2026-05-06 20:23 | 52.03999 | 21.22968 | 8422 ft | 217 kts | 157° |
| 2026-05-06 20:23 | 52.02669 | 21.24117 | 8141 ft | 216 kts | 157° |
| 2026-05-06 20:23 | 52.01342 | 21.25268 | 7865 ft | 216 kts | 157° |
| 2026-05-06 20:23 | 52.00020 | 21.26411 | 7572 ft | 215 kts | 157° |
| 2026-05-06 20:24 | 51.98699 | 21.27546 | 7293 ft | 214 kts | 157° |
| 2026-05-06 20:24 | 51.97382 | 21.28672 | 7015 ft | 214 kts | 157° |
| 2026-05-06 20:24 | 51.96069 | 21.29800 | 6736 ft | 213 kts | 156° |
| 2026-05-06 20:24 | 51.94759 | 21.30923 | 6467 ft | 213 kts | 156° |
| 2026-05-06 20:25 | 51.93453 | 21.32044 | 6194 ft | 212 kts | 156° |
| 2026-05-06 20:25 | 51.92167 | 21.33152 | 6047 ft | 205 kts | 156° |
| 2026-05-06 20:25 | 51.90885 | 21.34003 | 5902 ft | 193 kts | 174° |
| 2026-05-06 20:25 | 51.89600 | 21.33919 | 5784 ft | 178 kts | 198° |
| 2026-05-06 20:26 | 51.88558 | 21.33080 | 5651 ft | 165 kts | 219° |
| 2026-05-06 20:26 | 51.87820 | 21.31729 | 5458 ft | 160 kts | 238° |
| 2026-05-06 20:26 | 51.87308 | 21.30168 | 5161 ft | 153 kts | 240° |
| 2026-05-06 20:26 | 51.86807 | 21.28648 | 4860 ft | 151 kts | 240° |
| 2026-05-06 20:27 | 51.86315 | 21.27098 | 4931 ft | 158 kts | 246° |
| 2026-05-06 20:27 | 51.86133 | 21.25331 | 4970 ft | 163 kts | 269° |
| 2026-05-06 20:27 | 51.86447 | 21.23554 | 4982 ft | 169 kts | 294° |
| 2026-05-06 20:27 | 51.87263 | 21.22138 | 4989 ft | 177 kts | 322° |
| 2026-05-06 20:28 | 51.88352 | 21.21178 | 4998 ft | 178 kts | 327° |
| 2026-05-06 20:28 | 51.89435 | 21.20254 | 4997 ft | 178 kts | 327° |
| 2026-05-06 20:28 | 51.90535 | 21.19309 | 4997 ft | 179 kts | 327° |
| 2026-05-06 20:28 | 51.91633 | 21.18364 | 4999 ft | 179 kts | 327° |
| 2026-05-06 20:29 | 51.92732 | 21.17416 | 5003 ft | 179 kts | 327° |
| 2026-05-06 20:29 | 51.93834 | 21.16465 | 4981 ft | 179 kts | 327° |
| 2026-05-06 20:29 | 51.94915 | 21.15535 | 4724 ft | 173 kts | 327° |
| 2026-05-06 20:29 | 51.95979 | 21.14618 | 4185 ft | 173 kts | 327° |
| 2026-05-06 20:30 | 51.97030 | 21.13711 | 4006 ft | 171 kts | 327° |
| 2026-05-06 20:30 | 51.99157 | 21.11864 | 3883 ft | 174 kts | 327° |
| 2026-05-06 20:30 | 52.00220 | 21.10943 | 3699 ft | 172 kts | 327° |
| 2026-05-06 20:31 | 52.01274 | 21.10029 | 3474 ft | 172 kts | 327° |
| 2026-05-06 20:31 | 52.02325 | 21.09117 | 3256 ft | 170 kts | 327° |
| 2026-05-06 20:31 | 52.03354 | 21.08224 | 3042 ft | 169 kts | 327° |
| 2026-05-06 20:31 | 52.04390 | 21.07325 | 2817 ft | 168 kts | 328° |
| 2026-05-06 20:32 | 52.05374 | 21.06474 | 2604 ft | 154 kts | 327° |
| 2026-05-06 20:32 | 52.06294 | 21.05674 | 2410 ft | 147 kts | 327° |
| 2026-05-06 20:32 | 52.07190 | 21.04896 | 2207 ft | 144 kts | 327° |
| 2026-05-06 20:32 | 52.08071 | 21.04128 | 2022 ft | 143 kts | 327° |
| 2026-05-06 20:33 | 52.08943 | 21.03369 | 1840 ft | 142 kts | 328° |
| 2026-05-06 20:33 | 52.09814 | 21.02611 | 1655 ft | 141 kts | 328° |
| 2026-05-06 20:33 | 52.10678 | 21.01858 | 1466 ft | 141 kts | 328° |
| 2026-05-06 20:33 | 52.11539 | 21.01108 | 1278 ft | 141 kts | 329° |
| 2026-05-06 20:34 | 52.12416 | 21.00363 | 1074 ft | 142 kts | 330° |
| 2026-05-06 20:34 | 52.13282 | 20.99650 | 840 ft | 141 kts | 332° |
| 2026-05-06 20:34 | 52.14136 | 20.98889 | 667 ft | 140 kts | 329° |
| 2026-05-06 20:34 | 52.14984 | 20.98121 | 505 ft | 139 kts | 332° |
| 2026-05-06 20:35 | 52.15835 | 20.97363 | 372 ft | 138 kts | 332° |
| 2026-05-06 20:35 | 52.16569 | 20.96666 | 348 ft | 101 kts | 345° |
| 2026-05-06 20:35 | 52.17052 | 20.96305 | 332 ft | 53 kts | 332° |
| 2026-05-06 20:35 | 52.17251 | 20.96128 | 337 ft | 25 kts | 330° |
| 2026-05-06 20:36 | 52.17413 | 20.96068 | 335 ft | 24 kts | 354° |
| 2026-05-06 20:36 | 52.17543 | 20.96076 | 338 ft | 0 kts | 22° |
| 2026-05-06 20:36 | 52.17546 | 20.96078 | 337 ft | 2 kts | 23° |
| 2026-05-06 20:36 | 52.17568 | 20.96102 | 333 ft | 6 kts | 45° |
| 2026-05-06 20:37 | 52.17581 | 20.96184 | 337 ft | 10 kts | 92° |
| 2026-05-06 20:37 | 52.17526 | 20.96281 | 334 ft | 14 kts | 153° |
| 2026-05-06 20:37 | 52.17439 | 20.96384 | 336 ft | 15 kts | 98° |
| 2026-05-06 20:37 | 52.17458 | 20.96564 | 336 ft | 16 kts | 128° |
| 2026-05-06 20:38 | 52.17350 | 20.96673 | 331 ft | 21 kts | 152° |
| 2026-05-06 20:38 | 52.17230 | 20.96779 | 334 ft | 11 kts | 153° |
| 2026-05-06 20:38 | 52.17145 | 20.96851 | 333 ft | 16 kts | 152° |
| 2026-05-06 20:38 | 52.17103 | 20.96887 | 332 ft | 3 kts | 151° |
| 2026-05-06 20:39 | 52.17073 | 20.96914 | 333 ft | 7 kts | 151° |
| 2026-05-06 20:39 | 52.17066 | 20.96952 | 334 ft | 2 kts | 60° |
| 2026-05-06 20:39 | 52.17081 | 20.96997 | 334 ft | 7 kts | 66° |
| 2026-05-06 20:39 | 52.17096 | 20.97076 | 333 ft | 0 kts | 74° |